createdAt,value
2023-04-08T00:00:05.163Z,26.04
2023-04-08T00:01:05.145Z,25.99
2023-04-08T00:02:05.148Z,26.02
2023-04-08T00:03:05.222Z,26.02
2023-04-08T00:04:05.229Z,26.02
2023-04-08T00:05:05.243Z,26.02
2023-04-08T00:06:04.975Z,26.02
2023-04-08T00:07:04.949Z,26.01
2023-04-08T00:08:04.921Z,26.01
2023-04-08T00:09:04.926Z,26.04
2023-04-08T00:10:04.888Z,26.04
2023-04-08T00:11:04.882Z,26.02
2023-04-08T00:12:04.876Z,26.01
2023-04-08T00:13:04.877Z,26.01
2023-04-08T00:14:04.865Z,26.02
2023-04-08T00:15:04.864Z,26.01
2023-04-08T00:16:04.834Z,26.01
2023-04-08T00:17:04.927Z,26.04
2023-04-08T00:18:04.914Z,26.02
2023-04-08T00:19:04.818Z,26.04
2023-04-08T00:20:04.881Z,26.02
2023-04-08T00:21:04.813Z,26.02
2023-04-08T00:22:04.801Z,26.02
2023-04-08T00:23:04.791Z,26.01
2023-04-08T00:24:04.785Z,26.01
2023-04-08T00:25:04.786Z,25.99
2023-04-08T00:26:04.747Z,26.02
2023-04-08T00:27:04.772Z,25.99
2023-04-08T00:28:04.760Z,26.01
2023-04-08T00:29:04.760Z,25.99
2023-04-08T00:30:04.756Z,26.01
2023-04-08T00:31:04.814Z,26.02
2023-04-08T00:32:04.763Z,26.01
2023-04-08T00:33:04.771Z,26.02
2023-04-08T00:34:04.748Z,26.01
2023-04-08T00:35:04.714Z,26.01
2023-04-08T00:36:04.754Z,26.02
2023-04-08T00:37:04.694Z,26.04
2023-04-08T00:38:04.689Z,25.99
2023-04-08T00:39:04.669Z,26.01
2023-04-08T00:40:04.659Z,26.01
2023-04-08T00:41:04.671Z,26.01
2023-04-08T00:42:04.675Z,26.01
2023-04-08T00:43:04.649Z,26.01
2023-04-08T00:44:04.635Z,26.01
2023-04-08T00:45:04.640Z,26.01
2023-04-08T00:46:04.635Z,25.99
2023-04-08T00:47:04.650Z,26.01
2023-04-08T00:48:04.688Z,26.02
2023-04-08T00:49:04.611Z,25.99
2023-04-08T00:50:04.586Z,25.99
2023-04-08T00:51:04.591Z,25.99
2023-04-08T00:52:04.593Z,25.99
2023-04-08T00:53:04.575Z,25.99
2023-04-08T00:54:04.575Z,26.02
2023-04-08T00:55:04.571Z,25.98
2023-04-08T00:56:04.557Z,25.98
2023-04-08T00:57:04.584Z,25.99
2023-04-08T00:58:04.558Z,26.01
2023-04-08T00:59:04.556Z,25.99
2023-04-08T01:00:04.539Z,26.01
2023-04-08T01:01:04.580Z,25.99
2023-04-08T01:02:04.653Z,25.99
2023-04-08T01:03:04.610Z,26.01
2023-04-08T01:04:04.623Z,25.99
2023-04-08T01:05:04.507Z,25.99
2023-04-08T01:06:04.513Z,26.01
2023-04-08T01:07:04.539Z,25.98
2023-04-08T01:08:04.519Z,25.98
2023-04-08T01:09:04.547Z,26.01
2023-04-08T01:10:04.552Z,25.97
2023-04-08T01:11:04.563Z,25.98
2023-04-08T01:12:04.582Z,25.99
2023-04-08T01:13:04.598Z,25.95
2023-04-08T01:14:04.596Z,25.99
2023-04-08T01:15:04.599Z,25.98
2023-04-08T01:16:04.667Z,26.01
2023-04-08T01:17:04.636Z,25.98
2023-04-08T01:18:04.632Z,25.99
2023-04-08T01:19:04.620Z,25.98
2023-04-08T01:20:04.622Z,25.97
2023-04-08T01:21:04.599Z,25.98
2023-04-08T01:22:04.616Z,25.98
2023-04-08T01:23:04.592Z,25.95
2023-04-08T01:24:04.580Z,25.97
2023-04-08T01:25:04.572Z,25.99
2023-04-08T01:26:04.576Z,25.99
2023-04-08T01:27:04.576Z,25.97
2023-04-08T01:28:04.550Z,25.99
2023-04-08T01:29:04.559Z,25.97
2023-04-08T01:30:04.551Z,25.98
2023-04-08T01:31:04.701Z,25.98
2023-04-08T01:32:04.551Z,25.98
2023-04-08T01:33:04.588Z,25.95
2023-04-08T01:34:04.526Z,25.98
2023-04-08T01:35:04.518Z,25.97
2023-04-08T01:36:04.556Z,25.95
2023-04-08T01:37:04.495Z,25.99
2023-04-08T01:38:04.496Z,25.97
2023-04-08T01:39:04.477Z,25.98
2023-04-08T01:40:04.542Z,25.95
2023-04-08T01:41:04.466Z,25.95
2023-04-08T01:42:04.468Z,25.97
2023-04-08T01:43:04.461Z,25.95
2023-04-08T01:44:04.463Z,25.97
2023-04-08T01:45:04.447Z,25.97
2023-04-08T01:46:04.440Z,25.98
2023-04-08T01:47:04.563Z,25.98
2023-04-08T01:48:04.456Z,25.99
2023-04-08T01:49:04.417Z,25.98
2023-04-08T01:50:04.415Z,25.97
2023-04-08T01:51:04.406Z,25.97
2023-04-08T01:52:04.396Z,25.97
2023-04-08T01:53:04.387Z,25.99
2023-04-08T01:54:04.385Z,25.97
2023-04-08T01:55:04.368Z,25.97
2023-04-08T01:56:04.360Z,25.95
2023-04-08T01:57:04.366Z,25.98
2023-04-08T01:58:04.355Z,25.98
2023-04-08T01:59:04.332Z,25.98
2023-04-08T02:00:04.337Z,25.98
2023-04-08T02:01:04.330Z,25.98
2023-04-08T02:02:04.437Z,25.95
2023-04-08T02:03:04.603Z,25.97
2023-04-08T02:04:04.388Z,25.95
2023-04-08T02:05:04.302Z,25.95
2023-04-08T02:06:04.307Z,25.95
2023-04-08T02:07:04.311Z,25.95
2023-04-08T02:08:04.310Z,25.97
2023-04-08T02:09:04.313Z,25.95
2023-04-08T02:10:04.311Z,25.95
2023-04-08T02:11:04.283Z,25.95
2023-04-08T02:12:04.322Z,25.97
2023-04-08T02:13:04.288Z,25.97
2023-04-08T02:14:04.282Z,25.94
2023-04-08T02:15:04.280Z,25.95
2023-04-08T02:16:04.282Z,25.94
2023-04-08T02:17:04.256Z,25.95
2023-04-08T02:18:04.275Z,25.95
2023-04-08T02:19:04.262Z,25.97
2023-04-08T02:20:04.251Z,25.94
2023-04-08T02:21:04.233Z,25.95
2023-04-08T02:22:04.233Z,25.95
2023-04-08T02:23:04.230Z,25.97
2023-04-08T02:24:04.231Z,25.95
2023-04-08T02:25:04.219Z,25.98
2023-04-08T02:26:04.205Z,25.95
2023-04-08T02:27:04.220Z,25.95
2023-04-08T02:28:04.204Z,25.94
2023-04-08T02:29:04.176Z,25.95
2023-04-08T02:30:04.179Z,25.97
2023-04-08T02:31:04.173Z,25.98
2023-04-08T02:32:04.172Z,25.95
2023-04-08T02:33:04.202Z,25.95
2023-04-08T02:34:04.148Z,25.95
2023-04-08T02:35:04.155Z,25.94
2023-04-08T02:36:04.179Z,25.97
2023-04-08T02:37:04.125Z,25.95
2023-04-08T02:38:04.130Z,25.95
2023-04-08T02:39:04.156Z,25.94
2023-04-08T02:40:04.140Z,25.95
2023-04-08T02:41:04.082Z,25.95
2023-04-08T02:42:04.047Z,25.92
2023-04-08T02:43:04.018Z,25.94
2023-04-08T02:44:04.058Z,25.97
2023-04-08T02:45:03.932Z,25.94
2023-04-08T02:46:04.204Z,25.94
2023-04-08T02:47:03.865Z,25.95
2023-04-08T02:48:03.911Z,25.94
2023-04-08T02:49:03.794Z,25.92
2023-04-08T02:50:03.761Z,25.94
2023-04-08T02:51:03.727Z,25.97
2023-04-08T02:52:03.695Z,25.94
2023-04-08T02:53:03.665Z,25.94
2023-04-08T02:54:03.636Z,25.95
2023-04-08T02:55:03.606Z,25.95
2023-04-08T02:56:03.603Z,25.92
2023-04-08T02:57:03.531Z,25.92
2023-04-08T02:58:03.506Z,25.94
2023-04-08T02:59:03.465Z,25.92
2023-04-08T03:00:03.510Z,25.95
2023-04-08T03:01:03.465Z,25.92
2023-04-08T03:02:03.475Z,25.91
2023-04-08T03:03:03.571Z,25.91
2023-04-08T03:04:03.491Z,25.90
2023-04-08T03:05:03.420Z,25.87
2023-04-08T03:06:03.445Z,25.87
2023-04-08T03:07:03.438Z,25.84
2023-04-08T03:08:03.452Z,25.83
2023-04-08T03:09:03.447Z,25.84
2023-04-08T03:10:03.469Z,25.80
2023-04-08T03:11:03.482Z,25.77
2023-04-08T03:12:03.491Z,25.76
2023-04-08T03:13:03.522Z,25.71
2023-04-08T03:14:03.525Z,25.70
2023-04-08T03:15:03.678Z,25.69
2023-04-08T03:16:03.561Z,25.67
2023-04-08T03:17:03.658Z,25.64
2023-04-08T03:18:03.664Z,25.64
2023-04-08T03:19:03.633Z,25.61
2023-04-08T03:20:03.674Z,25.61
2023-04-08T03:21:03.708Z,25.59
2023-04-08T03:22:03.741Z,25.57
2023-04-08T03:23:03.783Z,25.54
2023-04-08T03:24:03.814Z,25.53
2023-04-08T03:25:03.845Z,25.50
2023-04-08T03:26:03.890Z,25.50
2023-04-08T03:27:03.928Z,25.46
2023-04-08T03:28:03.955Z,25.47
2023-04-08T03:29:03.974Z,25.46
2023-04-08T03:30:04.031Z,25.44
2023-04-08T03:31:04.042Z,25.43
2023-04-08T03:32:04.147Z,25.40
2023-04-08T03:33:06.806Z,25.39
2023-04-08T03:34:04.103Z,25.39
2023-04-08T03:35:04.067Z,25.39
2023-04-08T03:36:04.057Z,25.37
2023-04-08T03:37:04.006Z,25.36
2023-04-08T03:38:03.988Z,25.32
2023-04-08T03:39:03.969Z,25.30
2023-04-08T03:40:03.938Z,25.34
2023-04-08T03:41:03.894Z,25.29
2023-04-08T03:42:03.892Z,25.29
2023-04-08T03:43:03.843Z,25.29
2023-04-08T03:44:03.816Z,25.26
2023-04-08T03:45:03.785Z,25.26
2023-04-08T03:46:03.764Z,25.26
2023-04-08T03:47:03.720Z,25.23
2023-04-08T03:48:03.816Z,25.25
2023-04-08T03:49:03.680Z,25.22
2023-04-08T03:50:03.645Z,25.19
2023-04-08T03:51:03.602Z,25.22
2023-04-08T03:52:03.570Z,25.19
2023-04-08T03:53:03.551Z,25.19
2023-04-08T03:54:03.524Z,25.15
2023-04-08T03:55:03.483Z,25.16
2023-04-08T03:56:03.488Z,25.16
2023-04-08T03:57:03.421Z,25.16
2023-04-08T03:58:03.386Z,25.14
2023-04-08T03:59:03.358Z,25.14
2023-04-08T04:00:03.344Z,25.12
2023-04-08T04:01:03.297Z,25.09
2023-04-08T04:02:03.310Z,25.08
2023-04-08T04:03:03.297Z,25.09
2023-04-08T04:04:03.425Z,25.08
2023-04-08T04:05:03.236Z,25.09
2023-04-08T04:06:03.152Z,25.04
2023-04-08T04:07:03.123Z,25.04
2023-04-08T04:08:03.100Z,25.06
2023-04-08T04:09:03.062Z,25.04
2023-04-08T04:10:03.096Z,25.05
2023-04-08T04:11:03.020Z,25.02
2023-04-08T04:12:02.998Z,25.05
2023-04-08T04:13:02.976Z,25.02
2023-04-08T04:14:02.953Z,25.01
2023-04-08T04:15:02.911Z,24.99
2023-04-08T04:16:02.938Z,24.99
2023-04-08T04:17:02.940Z,25.01
2023-04-08T04:18:02.990Z,24.98
2023-04-08T04:19:03.010Z,24.96
2023-04-08T04:20:02.918Z,24.98
2023-04-08T04:21:02.898Z,24.96
2023-04-08T04:22:02.918Z,24.96
2023-04-08T04:23:02.922Z,24.96
2023-04-08T04:24:02.961Z,24.96
2023-04-08T04:25:02.946Z,24.92
2023-04-08T04:26:02.908Z,24.94
2023-04-08T04:27:02.891Z,24.89
2023-04-08T04:28:02.906Z,24.92
2023-04-08T04:29:02.865Z,24.91
2023-04-08T04:30:02.841Z,24.89
2023-04-08T04:31:02.873Z,24.89
2023-04-08T04:32:02.796Z,24.89
2023-04-08T04:33:02.882Z,24.87
2023-04-08T04:34:02.801Z,24.88
2023-04-08T04:35:02.790Z,24.89
2023-04-08T04:36:02.883Z,24.88
2023-04-08T04:37:02.771Z,24.87
2023-04-08T04:38:02.765Z,24.85
2023-04-08T04:39:02.708Z,24.85
2023-04-08T04:40:02.677Z,24.84
2023-04-08T04:41:02.655Z,24.85
2023-04-08T04:42:02.612Z,24.85
2023-04-08T04:43:02.578Z,24.84
2023-04-08T04:44:02.545Z,24.81
2023-04-08T04:45:02.520Z,24.82
2023-04-08T04:46:02.513Z,24.81
2023-04-08T04:47:02.438Z,24.79
2023-04-08T04:48:02.427Z,24.81
2023-04-08T04:49:02.381Z,24.82
2023-04-08T04:50:02.366Z,24.84
2023-04-08T04:51:02.329Z,24.79
2023-04-08T04:52:02.323Z,24.79
2023-04-08T04:53:02.291Z,24.79
2023-04-08T04:54:02.263Z,24.79
2023-04-08T04:55:02.223Z,24.75
2023-04-08T04:56:02.379Z,24.77
2023-04-08T04:57:02.177Z,24.78
2023-04-08T04:58:02.152Z,24.77
2023-04-08T04:59:02.115Z,24.77
2023-04-08T05:00:04.693Z,24.74
2023-04-08T05:01:02.078Z,24.77
2023-04-08T05:02:02.133Z,24.74
2023-04-08T05:03:02.086Z,24.72
2023-04-08T05:04:01.973Z,24.75
2023-04-08T05:05:02.008Z,24.74
2023-04-08T05:06:01.894Z,24.74
2023-04-08T05:07:01.879Z,24.71
2023-04-08T05:08:01.850Z,24.74
2023-04-08T05:09:01.808Z,24.72
2023-04-08T05:10:01.837Z,24.74
2023-04-08T05:11:01.769Z,24.71
2023-04-08T05:12:01.720Z,24.70
2023-04-08T05:13:01.719Z,24.71
2023-04-08T05:14:01.650Z,24.70
2023-04-08T05:15:01.623Z,24.70
2023-04-08T05:16:01.621Z,24.70
2023-04-08T05:17:01.530Z,24.71
2023-04-08T05:18:01.557Z,24.68
2023-04-08T05:19:01.465Z,24.68
2023-04-08T05:20:01.421Z,24.68
2023-04-08T05:21:01.385Z,24.68
2023-04-08T05:22:01.440Z,24.67
2023-04-08T05:23:01.356Z,24.66
2023-04-08T05:24:01.299Z,24.67
2023-04-08T05:25:01.291Z,24.66
2023-04-08T05:26:01.299Z,24.66
2023-04-08T05:27:01.302Z,24.66
2023-04-08T05:28:01.269Z,24.66
2023-04-08T05:29:01.273Z,24.64
2023-04-08T05:30:01.258Z,24.64
2023-04-08T05:31:01.295Z,24.63
2023-04-08T05:32:01.263Z,24.63
2023-04-08T05:33:01.312Z,24.61
2023-04-08T05:34:01.263Z,24.64
2023-04-08T05:35:01.245Z,24.61
2023-04-08T05:36:01.316Z,24.64
2023-04-08T05:37:01.264Z,24.63
2023-04-08T05:38:01.247Z,24.61
2023-04-08T05:39:03.282Z,24.64
2023-04-08T05:40:01.435Z,24.61
2023-04-08T05:41:01.238Z,24.64
2023-04-08T05:42:01.251Z,24.61
2023-04-08T05:43:01.252Z,24.61
2023-04-08T05:44:01.273Z,24.63
2023-04-08T05:45:01.270Z,24.63
2023-04-08T05:46:01.273Z,24.59
2023-04-08T05:47:01.330Z,24.59
2023-04-08T05:48:01.328Z,24.60
2023-04-08T05:49:01.289Z,24.60
2023-04-08T05:50:01.302Z,24.59
2023-04-08T05:51:01.312Z,24.59
2023-04-08T05:52:01.307Z,24.60
2023-04-08T05:53:01.318Z,24.57
2023-04-08T05:54:01.318Z,24.59
2023-04-08T05:55:01.326Z,24.59
2023-04-08T05:56:01.316Z,24.59
2023-04-08T05:57:01.317Z,24.57
2023-04-08T05:58:01.339Z,24.57
2023-04-08T05:59:01.392Z,24.57
2023-04-08T06:00:01.331Z,24.57
2023-04-08T06:01:01.374Z,24.57
2023-04-08T06:02:01.449Z,24.56
2023-04-08T06:03:01.676Z,24.56
2023-04-08T06:04:01.556Z,24.54
2023-04-08T06:05:01.462Z,24.56
2023-04-08T06:06:01.342Z,24.54
2023-04-08T06:07:01.350Z,24.56
2023-04-08T06:08:01.355Z,24.56
2023-04-08T06:09:01.383Z,24.54
2023-04-08T06:10:01.384Z,24.54
2023-04-08T06:11:01.389Z,24.53
2023-04-08T06:12:01.392Z,24.54
2023-04-08T06:13:01.406Z,24.53
2023-04-08T06:14:01.408Z,24.53
2023-04-08T06:15:01.400Z,24.54
2023-04-08T06:16:01.409Z,24.54
2023-04-08T06:17:01.454Z,24.54
2023-04-08T06:18:01.477Z,24.53
2023-04-08T06:19:01.435Z,24.54
2023-04-08T06:20:01.443Z,24.54
2023-04-08T06:21:01.436Z,24.51
2023-04-08T06:22:01.560Z,24.53
2023-04-08T06:23:01.440Z,24.53
2023-04-08T06:24:01.456Z,24.53
2023-04-08T06:25:01.466Z,24.54
2023-04-08T06:26:01.563Z,24.54
2023-04-08T06:27:01.454Z,24.54
2023-04-08T06:28:01.484Z,24.53
2023-04-08T06:29:01.476Z,24.54
2023-04-08T06:30:01.474Z,24.51
2023-04-08T06:31:01.489Z,24.50
2023-04-08T06:32:01.543Z,24.51
2023-04-08T06:33:01.562Z,24.51
2023-04-08T06:34:01.518Z,24.51
2023-04-08T06:35:01.518Z,24.53
2023-04-08T06:36:01.579Z,24.49
2023-04-08T06:37:01.514Z,24.49
2023-04-08T06:38:01.513Z,24.54
2023-04-08T06:39:01.534Z,24.51
2023-04-08T06:40:01.540Z,24.54
2023-04-08T06:41:01.538Z,24.50
2023-04-08T06:42:01.688Z,24.53
2023-04-08T06:43:01.573Z,24.51
2023-04-08T06:44:01.546Z,24.54
2023-04-08T06:45:01.600Z,24.54
2023-04-08T06:46:01.623Z,24.53
2023-04-08T06:47:01.589Z,24.54
2023-04-08T06:48:01.622Z,24.54
2023-04-08T06:49:01.582Z,24.53
2023-04-08T06:50:01.597Z,24.53
2023-04-08T06:51:01.608Z,24.54
2023-04-08T06:52:01.604Z,24.53
2023-04-08T06:53:01.595Z,24.56
2023-04-08T06:54:01.562Z,24.53
2023-04-08T06:55:01.536Z,24.56
2023-04-08T06:56:01.568Z,24.53
2023-04-08T06:57:01.478Z,24.54
2023-04-08T06:58:01.438Z,24.53
2023-04-08T06:59:01.430Z,24.53
2023-04-08T07:00:01.402Z,24.54
2023-04-08T07:01:01.403Z,24.56
2023-04-08T07:02:01.474Z,24.56
2023-04-08T07:03:01.402Z,24.56
2023-04-08T07:04:01.316Z,24.53
2023-04-08T07:05:01.240Z,24.54
2023-04-08T07:06:01.212Z,24.54
2023-04-08T07:07:01.182Z,24.56
2023-04-08T07:08:01.167Z,24.56
2023-04-08T07:09:01.178Z,24.56
2023-04-08T07:10:01.179Z,24.54
2023-04-08T07:11:01.210Z,24.57
2023-04-08T07:12:01.182Z,24.56
2023-04-08T07:13:01.186Z,24.54
2023-04-08T07:14:01.191Z,24.56
2023-04-08T07:15:01.197Z,24.56
2023-04-08T07:16:01.348Z,24.54
2023-04-08T07:17:01.231Z,24.54
2023-04-08T07:18:01.218Z,24.57
2023-04-08T07:19:01.195Z,24.60
2023-04-08T07:20:01.201Z,24.56
2023-04-08T07:21:01.210Z,24.56
2023-04-08T07:22:01.197Z,24.56
2023-04-08T07:23:01.235Z,24.59
2023-04-08T07:24:01.220Z,24.59
2023-04-08T07:25:01.238Z,24.56
2023-04-08T07:26:01.247Z,24.59
2023-04-08T07:27:01.220Z,24.59
2023-04-08T07:28:01.237Z,24.56
2023-04-08T07:29:01.243Z,24.56
2023-04-08T07:30:01.247Z,24.57
2023-04-08T07:31:01.267Z,24.59
2023-04-08T07:32:01.233Z,24.57
2023-04-08T07:33:01.406Z,24.57
2023-04-08T07:34:01.226Z,24.56
2023-04-08T07:35:01.251Z,24.57
2023-04-08T07:36:01.266Z,24.57
2023-04-08T07:37:01.235Z,24.59
2023-04-08T07:38:01.236Z,24.60
2023-04-08T07:39:01.307Z,24.61
2023-04-08T07:40:01.229Z,24.59
2023-04-08T07:41:01.234Z,24.59
2023-04-08T07:42:01.233Z,24.59
2023-04-08T07:43:01.232Z,24.60
2023-04-08T07:44:01.267Z,24.60
2023-04-08T07:45:01.240Z,24.59
2023-04-08T07:46:01.255Z,24.61
2023-04-08T07:47:01.242Z,24.59
2023-04-08T07:48:01.254Z,24.61
2023-04-08T07:49:01.216Z,24.61
2023-04-08T07:50:01.235Z,24.59
2023-04-08T07:51:08.344Z,24.63
2023-04-08T07:52:01.176Z,24.64
2023-04-08T07:53:01.135Z,24.63
2023-04-08T07:54:01.114Z,24.63
2023-04-08T07:55:01.096Z,24.61
2023-04-08T07:56:01.040Z,24.64
2023-04-08T07:57:01.015Z,24.66
2023-04-08T07:58:00.974Z,24.64
2023-04-08T07:59:00.940Z,24.66
2023-04-08T08:00:00.930Z,24.66
2023-04-08T08:01:00.875Z,24.67
2023-04-08T08:02:00.874Z,24.64
2023-04-08T08:03:00.869Z,24.68
2023-04-08T08:04:00.983Z,24.67
2023-04-08T08:05:00.859Z,24.66
2023-04-08T08:06:00.739Z,24.66
2023-04-08T08:07:00.696Z,24.67
2023-04-08T08:08:00.675Z,24.68
2023-04-08T08:09:00.632Z,24.68
2023-04-08T08:10:00.635Z,24.64
2023-04-08T08:11:00.562Z,24.67
2023-04-08T08:12:00.543Z,24.70
2023-04-08T08:13:00.511Z,24.70
2023-04-08T08:14:00.505Z,24.67
2023-04-08T08:15:00.507Z,24.70
2023-04-08T08:16:00.574Z,24.70
2023-04-08T08:17:00.476Z,24.70
2023-04-08T08:18:00.544Z,24.71
2023-04-08T08:19:00.490Z,24.70
2023-04-08T08:20:00.489Z,24.72
2023-04-08T08:21:00.483Z,24.72
2023-04-08T08:22:00.466Z,24.74
2023-04-08T08:23:00.471Z,24.72
2023-04-08T08:24:00.444Z,24.72
2023-04-08T08:25:00.447Z,24.74
2023-04-08T08:26:00.414Z,24.74
2023-04-08T08:27:00.388Z,24.75
2023-04-08T08:28:00.388Z,24.72
2023-04-08T08:29:00.362Z,24.72
2023-04-08T08:30:00.347Z,24.74
2023-04-08T08:31:00.369Z,24.77
2023-04-08T08:32:00.359Z,24.77
2023-04-08T08:33:00.368Z,24.74
2023-04-08T08:34:00.326Z,24.75
2023-04-08T08:35:00.316Z,24.72
2023-04-08T08:36:00.410Z,24.75
2023-04-08T08:37:00.295Z,24.75
2023-04-08T08:38:00.270Z,24.75
2023-04-08T08:39:00.299Z,24.75
2023-04-08T08:40:00.271Z,24.75
2023-04-08T08:41:00.241Z,24.77
2023-04-08T08:42:00.234Z,24.78
2023-04-08T08:43:00.215Z,24.77
2023-04-08T08:44:00.242Z,24.78
2023-04-08T08:45:00.216Z,24.79
2023-04-08T08:46:00.181Z,24.79
2023-04-08T08:47:00.184Z,24.78
2023-04-08T08:48:00.203Z,24.78
2023-04-08T08:49:00.140Z,24.78
2023-04-08T08:50:00.158Z,24.79
2023-04-08T08:51:00.115Z,24.82
2023-04-08T08:52:00.130Z,24.79
2023-04-08T08:53:00.126Z,24.84
2023-04-08T08:54:00.097Z,24.81
2023-04-08T08:55:00.067Z,24.81
2023-04-08T08:57:01.002Z,24.84
2023-04-08T08:57:59.986Z,24.84
2023-04-08T08:58:59.959Z,24.81
2023-04-08T08:59:59.929Z,24.82
2023-04-08T09:00:59.897Z,24.85
2023-04-08T09:01:59.920Z,24.88
2023-04-08T09:03:00.036Z,24.87
2023-04-08T09:03:59.899Z,24.88
2023-04-08T09:04:59.919Z,24.94
2023-04-08T09:05:59.738Z,24.94
2023-04-08T09:06:59.714Z,24.95
2023-04-08T09:07:59.672Z,24.98
2023-04-08T09:08:59.656Z,25.01
2023-04-08T09:09:59.615Z,25.04
2023-04-08T09:10:59.600Z,25.04
2023-04-08T09:11:59.564Z,25.06
2023-04-08T09:12:59.536Z,25.11
2023-04-08T09:13:59.500Z,25.08
2023-04-08T09:14:59.476Z,25.11
2023-04-08T09:15:59.449Z,25.15
2023-04-08T09:16:59.404Z,25.11
2023-04-08T09:17:59.414Z,25.15
2023-04-08T09:18:59.346Z,25.19
2023-04-08T09:19:59.314Z,25.22
2023-04-08T09:20:59.279Z,25.23
2023-04-08T09:21:59.250Z,25.26
2023-04-08T09:22:59.272Z,25.25
2023-04-08T09:23:59.350Z,25.29
2023-04-08T09:24:59.273Z,25.30
2023-04-08T09:25:59.289Z,25.32
2023-04-08T09:26:59.304Z,25.36
2023-04-08T09:27:59.291Z,25.37
2023-04-08T09:28:59.610Z,25.39
2023-04-08T09:29:59.329Z,25.40
2023-04-08T09:30:59.313Z,25.43
2023-04-08T09:31:59.465Z,25.46
2023-04-08T09:32:59.380Z,25.50
2023-04-08T09:33:59.377Z,25.52
2023-04-08T09:34:59.417Z,25.54
2023-04-08T09:35:59.439Z,25.53
2023-04-08T09:36:59.460Z,25.54
2023-04-08T09:37:59.476Z,25.60
2023-04-08T09:38:59.529Z,25.61
2023-04-08T09:39:59.556Z,25.63
2023-04-08T09:40:59.580Z,25.61
2023-04-08T09:41:59.618Z,25.61
2023-04-08T09:42:59.637Z,25.61
2023-04-08T09:43:59.659Z,25.61
2023-04-08T09:44:59.697Z,25.66
2023-04-08T09:45:59.827Z,25.66
2023-04-08T09:46:59.740Z,25.64
2023-04-08T09:47:59.835Z,25.70
2023-04-08T09:48:59.804Z,25.67
2023-04-08T09:49:59.840Z,25.70
2023-04-08T09:50:59.902Z,25.70
2023-04-08T09:51:59.900Z,25.69
2023-04-08T09:52:59.918Z,25.71
2023-04-08T09:53:59.949Z,25.73
2023-04-08T09:54:59.983Z,25.77
2023-04-08T09:55:59.999Z,25.79
2023-04-08T09:57:00.022Z,25.81
2023-04-08T09:58:00.072Z,25.83
2023-04-08T09:59:00.048Z,25.84
2023-04-08T10:00:00.049Z,25.84
2023-04-08T10:01:00.139Z,25.85
2023-04-08T10:02:00.278Z,25.84
2023-04-08T10:03:00.303Z,25.84
2023-04-08T10:04:00.214Z,25.85
2023-04-08T10:05:00.260Z,25.85
2023-04-08T10:06:00.162Z,25.87
2023-04-08T10:07:00.153Z,25.88
2023-04-08T10:08:00.158Z,25.90
2023-04-08T10:09:00.177Z,25.88
2023-04-08T10:10:00.240Z,25.91
2023-04-08T10:11:00.193Z,25.88
2023-04-08T10:12:00.203Z,25.91
2023-04-08T10:13:00.219Z,25.94
2023-04-08T10:14:00.222Z,25.94
2023-04-08T10:15:00.234Z,25.92
2023-04-08T10:16:00.226Z,25.91
2023-04-08T10:17:00.326Z,25.95
2023-04-08T10:18:00.246Z,25.97
2023-04-08T10:19:00.242Z,25.95
2023-04-08T10:20:00.255Z,25.97
2023-04-08T10:21:00.253Z,25.95
2023-04-08T10:22:00.277Z,25.98
2023-04-08T10:23:00.266Z,25.98
2023-04-08T10:24:00.252Z,26.01
2023-04-08T10:25:00.260Z,26.02
2023-04-08T10:26:00.255Z,26.02
2023-04-08T10:27:00.279Z,26.02
2023-04-08T10:28:00.255Z,26.04
2023-04-08T10:29:00.255Z,26.05
2023-04-08T10:30:00.265Z,26.05
2023-04-08T10:31:00.254Z,26.07
2023-04-08T10:32:00.282Z,26.07
2023-04-08T10:33:00.383Z,26.08
2023-04-08T10:34:00.221Z,26.09
2023-04-08T10:35:00.230Z,26.12
2023-04-08T10:36:00.283Z,26.09
2023-04-08T10:37:00.209Z,26.11
2023-04-08T10:38:00.190Z,26.12
2023-04-08T10:39:00.195Z,26.15
2023-04-08T10:40:00.209Z,26.14
2023-04-08T10:41:00.187Z,26.14
2023-04-08T10:42:00.244Z,26.15
2023-04-08T10:43:00.141Z,26.15
2023-04-08T10:44:00.142Z,26.15
2023-04-08T10:45:00.159Z,26.12
2023-04-08T10:46:00.142Z,26.14
2023-04-08T10:47:00.172Z,26.15
2023-04-08T10:48:00.160Z,26.17
2023-04-08T10:49:00.155Z,26.14
2023-04-08T10:50:00.135Z,26.17
2023-04-08T10:51:00.114Z,26.17
2023-04-08T10:52:00.120Z,26.15
2023-04-08T10:53:00.051Z,26.17
2023-04-08T10:54:00.034Z,26.17
2023-04-08T10:55:00.026Z,26.18
2023-04-08T10:56:00.020Z,26.17
2023-04-08T10:56:59.996Z,26.18
2023-04-08T10:57:59.984Z,26.18
2023-04-08T10:58:59.975Z,26.19
2023-04-08T10:59:59.952Z,26.19
2023-04-08T11:00:59.971Z,26.19
2023-04-08T11:02:00.222Z,26.19
2023-04-08T11:03:00.067Z,26.21
2023-04-08T11:03:59.992Z,26.21
2023-04-08T11:04:59.912Z,26.21
2023-04-08T11:05:59.921Z,26.21
2023-04-08T11:06:59.901Z,26.19
2023-04-08T11:07:59.879Z,26.21
2023-04-08T11:08:59.848Z,26.19
2023-04-08T11:09:59.843Z,26.22
2023-04-08T11:10:59.830Z,26.21
2023-04-08T11:11:59.813Z,26.22
2023-04-08T11:12:59.784Z,26.21
2023-04-08T11:13:59.785Z,26.21
2023-04-08T11:14:59.749Z,26.24
2023-04-08T11:15:59.874Z,26.24
2023-04-08T11:16:59.721Z,26.22
2023-04-08T11:17:59.741Z,26.24
2023-04-08T11:18:59.672Z,26.22
2023-04-08T11:19:59.659Z,26.22
2023-04-08T11:21:00.425Z,26.19
2023-04-08T11:21:59.635Z,26.22
2023-04-08T11:22:59.620Z,26.21
2023-04-08T11:23:59.600Z,26.24
2023-04-08T11:24:59.602Z,26.24
2023-04-08T11:25:59.602Z,26.22
2023-04-08T11:26:59.567Z,26.24
2023-04-08T11:27:59.552Z,26.21
2023-04-08T11:28:59.538Z,26.21
2023-04-08T11:29:59.516Z,26.19
2023-04-08T11:30:59.592Z,26.19
2023-04-08T11:31:59.481Z,26.19
2023-04-08T11:32:59.462Z,26.18
2023-04-08T11:33:59.374Z,26.21
2023-04-08T11:34:59.340Z,26.19
2023-04-08T11:35:59.326Z,26.18
2023-04-08T11:36:59.269Z,26.19
2023-04-08T11:37:59.239Z,26.18
2023-04-08T11:38:59.185Z,26.19
2023-04-08T11:39:59.166Z,26.18
2023-04-08T11:40:59.249Z,26.19
2023-04-08T11:41:59.095Z,26.19
2023-04-08T11:42:59.052Z,26.18
2023-04-08T11:43:59.007Z,26.21
2023-04-08T11:44:58.961Z,26.17
2023-04-08T11:45:58.954Z,26.19
2023-04-08T11:46:58.888Z,26.18
2023-04-08T11:47:58.891Z,26.17
2023-04-08T11:48:58.788Z,26.17
2023-04-08T11:49:58.753Z,26.17
2023-04-08T11:50:58.713Z,26.15
2023-04-08T11:51:58.684Z,26.18
2023-04-08T11:52:58.654Z,26.18
2023-04-08T11:53:58.619Z,26.22
2023-04-08T11:54:58.585Z,26.18
2023-04-08T11:55:58.554Z,26.19
2023-04-08T11:56:58.566Z,26.19
2023-04-08T11:57:58.525Z,26.19
2023-04-08T11:58:58.490Z,26.21
2023-04-08T11:59:58.466Z,26.24
2023-04-08T12:00:58.456Z,26.22
2023-04-08T12:01:58.434Z,26.24
2023-04-08T12:02:58.442Z,26.25
2023-04-08T12:03:58.841Z,26.25
2023-04-08T12:04:58.368Z,26.26
2023-04-08T12:05:58.329Z,26.25
2023-04-08T12:06:58.569Z,26.29
2023-04-08T12:07:58.277Z,26.25
2023-04-08T12:08:58.253Z,26.29
2023-04-08T12:09:58.226Z,26.29
2023-04-08T12:11:03.720Z,26.28
2023-04-08T12:11:59.162Z,26.29
2023-04-08T12:12:58.142Z,26.29
2023-04-08T12:13:58.090Z,26.28
2023-04-08T12:14:58.045Z,26.29
2023-04-08T12:15:58.053Z,26.29
2023-04-08T12:16:57.972Z,26.31
2023-04-08T12:17:58.014Z,26.32
2023-04-08T12:18:57.892Z,26.32
2023-04-08T12:19:57.847Z,26.35
2023-04-08T12:20:57.811Z,26.38
2023-04-08T12:21:57.767Z,26.36
2023-04-08T12:22:57.744Z,26.36
2023-04-08T12:23:57.690Z,26.38
2023-04-08T12:24:59.227Z,26.36
2023-04-08T12:25:57.613Z,26.38
2023-04-08T12:26:57.565Z,26.38
2023-04-08T12:27:57.547Z,26.39
2023-04-08T12:28:57.485Z,26.39
2023-04-08T12:29:57.452Z,26.39
2023-04-08T12:30:57.406Z,26.39
2023-04-08T12:31:57.408Z,26.38
2023-04-08T12:32:57.334Z,26.39
2023-04-08T12:33:57.281Z,26.38
2023-04-08T12:34:57.223Z,26.39
2023-04-08T12:35:57.226Z,26.39
2023-04-08T12:36:57.153Z,26.42
2023-04-08T12:37:57.123Z,26.42
2023-04-08T12:38:57.067Z,26.42
2023-04-08T12:39:57.045Z,26.40
2023-04-08T12:40:56.996Z,26.42
2023-04-08T12:41:56.958Z,26.40
2023-04-08T12:42:56.918Z,26.42
2023-04-08T12:43:56.890Z,26.43
2023-04-08T12:44:56.840Z,26.43
2023-04-08T12:45:56.805Z,26.42
2023-04-08T12:46:56.794Z,26.43
2023-04-08T12:47:56.754Z,26.45
2023-04-08T12:49:04.205Z,26.43
2023-04-08T12:49:57.658Z,26.42
2023-04-08T12:50:56.631Z,26.40
2023-04-08T12:51:56.589Z,26.42
2023-04-08T12:52:56.563Z,26.42